Time;durP1;ratioP1;P1;durP2;ratioP2;P2;SDS_P1;SDS_P2;PMS_P1;PMS_P2;Temp;Humidity;BMP_temperature;BMP_pressure;BME280_temperature;BME280_humidity;BME280_pressure;Samples;Min_cycle;Max_cycle;Signal;HPM_P1;HPM_P2
2022/10/21 00:01:13;;;;;;;12.63;11.33;;;;;;;12.79;100.00;100078.88;4942556;29;20294;-79
2022/10/21 00:03:40;;;;;;;12.57;11.57;;;;;;;12.78;100.00;100064.06;4942549;29;20211;-79
2022/10/21 00:06:07;;;;;;;12.27;11.17;;;;;;;12.76;100.00;100056.25;4942907;29;20239;-79
2022/10/21 00:08:34;;;;;;;12.03;10.87;;;;;;;12.78;100.00;100051.81;4941756;29;20212;-80
2022/10/21 00:11:04;;;;;;;12.70;11.17;;;;;;;12.76;100.00;100039.69;4941457;29;20725;-79
2022/10/21 00:13:34;;;;;;;12.87;10.37;;;;;;;12.78;100.00;100046.56;4941697;29;20215;-79
2022/10/21 00:16:03;;;;;;;16.20;10.37;;;;;;;12.80;100.00;100062.25;4941933;29;20227;-79
2022/10/21 00:18:31;;;;;;;10.97;9.87;;;;;;;12.76;100.00;100065.88;4941444;29;20211;-79
2022/10/21 00:20:58;;;;;;;12.43;11.23;;;;;;;12.73;100.00;100068.63;4941390;29;20503;-78
2022/10/21 00:23:25;;;;;;;12.20;11.00;;;;;;;12.68;100.00;100056.50;4941422;29;20228;-81
2022/10/21 00:25:56;;;;;;;12.57;11.47;;;;;;;12.63;100.00;100053.19;4941980;29;20843;-79
2022/10/21 00:28:22;;;;;;;16.73;12.70;;;;;;;12.61;100.00;100023.59;4943165;29;20212;-79
2022/10/21 00:30:50;;;;;;;12.53;11.27;;;;;;;12.66;100.00;100003.31;4941892;29;20585;-80
2022/10/21 00:33:17;;;;;;;13.53;11.97;;;;;;;12.70;100.00;99997.09;4942658;29;20211;-79
2022/10/21 00:35:43;;;;;;;12.40;10.70;;;;;;;12.72;100.00;99997.03;4941977;29;20231;-81
2022/10/21 00:38:10;;;;;;;13.80;12.60;;;;;;;12.75;100.00;99998.69;4941158;29;20212;-80
2022/10/21 00:40:36;;;;;;;13.07;11.77;;;;;;;12.80;100.00;100007.22;4940702;29;20207;-80
2022/10/21 00:43:03;;;;;;;13.13;11.00;;;;;;;12.77;100.00;100007.34;4941225;29;20215;-79
2022/10/21 00:45:30;;;;;;;13.50;11.20;;;;;;;12.77;100.00;100005.59;4941360;29;20226;-80
2022/10/21 00:48:02;;;;;;;13.80;11.37;;;;;;;12.79;100.00;100011.63;4941592;29;20216;-81
2022/10/21 00:50:33;;;;;;;14.47;11.63;;;;;;;12.80;100.00;100012.47;4940290;29;20581;-80
2022/10/21 00:53:01;;;;;;;12.63;11.33;;;;;;;12.85;100.00;100008.78;4941182;29;20203;-79
2022/10/21 00:55:34;;;;;;;12.70;11.53;;;;;;;12.86;100.00;99986.94;4942232;29;20227;-80
2022/10/21 00:58:03;;;;;;;11.87;10.70;;;;;;;12.89;100.00;99988.59;4942886;29;20216;-80
2022/10/21 01:00:30;;;;;;;13.60;10.93;;;;;;;12.90;100.00;99980.69;4942239;29;20208;-80
2022/10/21 01:02:56;;;;;;;11.97;10.77;;;;;;;12.95;100.00;99985.75;4942489;29;20225;-80
2022/10/21 01:05:25;;;;;;;12.77;11.50;;;;;;;12.94;100.00;99985.78;4942414;29;20226;-80
2022/10/21 01:07:52;;;;;;;12.27;11.37;;;;;;;12.96;100.00;99981.34;4941377;29;20235;-79
2022/10/21 01:10:18;;;;;;;12.13;11.03;;;;;;;12.90;100.00;99975.44;4941401;29;20243;-79
2022/10/21 01:13:01;;;;;;;12.17;11.13;;;;;;;12.91;100.00;99973.66;4941734;29;20210;-79
2022/10/21 01:15:34;;;;;;;11.83;10.60;;;;;;;12.99;100.00;99962.91;4941457;29;20239;-80
2022/10/21 01:18:09;;;;;;;11.60;10.47;;;;;;;13.02;100.00;99968.03;4942205;29;20703;-78
2022/10/21 01:20:56;;;;;;;11.83;10.83;;;;;;;13.00;100.00;99975.09;4941465;29;20208;-79
2022/10/21 01:23:51;;;;;;;10.43;9.43;;;;;;;13.02;100.00;99970.63;4940084;29;20215;-79
2022/10/21 01:26:59;;;;;;;16.43;10.40;;;;;;;13.04;100.00;99967.06;4941544;29;20233;-80
2022/10/21 01:30:04;;;;;;;10.77;9.97;;;;;;;13.04;100.00;99960.97;4931634;29;20214;-79
2022/10/21 01:32:40;;;;;;;11.20;10.20;;;;;;;12.95;100.00;99953.47;4942192;29;20210;-78
2022/10/21 01:35:12;;;;;;;11.70;10.50;;;;;;;12.99;100.00;99960.28;4943281;29;20222;-81
2022/10/21 01:37:49;;;;;;;10.47;9.50;;;;;;;13.00;100.00;99947.16;4942026;29;20207;-81
2022/10/21 01:40:21;;;;;;;17.03;9.83;;;;;;;13.08;100.00;99960.81;4941094;29;20210;-80
2022/10/21 01:42:52;;;;;;;10.20;9.30;;;;;;;13.02;100.00;99966.28;4940974;29;20240;-81
2022/10/21 01:45:23;;;;;;;12.30;10.43;;;;;;;13.05;100.00;99958.28;4943468;29;20234;-81
2022/10/21 01:47:54;;;;;;;10.30;9.60;;;;;;;13.04;100.00;99958.34;4941015;29;20211;-79
2022/10/21 01:50:25;;;;;;;10.17;9.43;;;;;;;13.01;100.00;99940.97;4938694;29;20585;-79
2022/10/21 01:52:55;;;;;;;10.33;9.53;;;;;;;13.02;100.00;99934.84;4938815;29;20212;-79
2022/10/21 01:55:26;;;;;;;10.40;9.60;;;;;;;13.00;100.00;99930.53;4938891;29;20252;-79
2022/10/21 01:57:58;;;;;;;10.43;9.60;;;;;;;13.04;100.00;99937.38;4939439;29;20215;-79
2022/10/21 02:00:25;;;;;;;10.70;9.73;;;;;;;13.06;100.00;99951.28;4939578;29;20206;-81
2022/10/21 02:02:53;;;;;;;10.87;9.77;;;;;;;13.07;100.00;99951.22;4938694;29;20210;-80
2022/10/21 02:05:22;;;;;;;11.47;10.30;;;;;;;13.07;100.00;99959.09;4938548;29;20238;-80
2022/10/21 02:07:49;;;;;;;10.00;9.20;;;;;;;13.06;100.00;99959.13;4939069;29;20226;-79
2022/10/21 02:10:17;;;;;;;11.80;9.27;;;;;;;13.05;100.00;99973.16;4939078;29;20236;-78
2022/10/21 02:12:47;;;;;;;10.80;9.80;;;;;;;13.00;100.00;99969.84;4938532;29;20569;-78
2022/10/21 02:15:16;;;;;;;11.63;8.17;;;;;;;12.94;100.00;99957.81;4938655;29;20216;-80
2022/10/21 02:17:49;;;;;;;11.10;10.00;;;;;;;12.99;100.00;99944.56;4938981;29;20207;-81
2022/10/21 02:20:18;;;;;;;9.97;9.17;;;;;;;12.93;100.00;99910.75;4937640;29;20215;-79
2022/10/21 02:22:47;;;;;;;11.33;10.10;;;;;;;12.98;100.00;99896.53;4938357;29;20212;-79
2022/10/21 02:25:18;;;;;;;9.73;8.83;;;;;;;13.02;100.00;99906.03;4938170;29;20225;-79
2022/10/21 02:27:45;;;;;;;9.40;8.60;;;;;;;13.04;100.00;99917.28;4938810;29;20215;-78
2022/10/21 02:30:12;;;;;;;10.37;9.50;;;;;;;13.04;100.00;99903.31;4940866;29;20219;-80
2022/10/21 02:32:46;;;;;;;10.17;9.27;;;;;;;13.08;100.00;99897.03;4940911;29;20214;-80
2022/10/21 02:35:30;;;;;;;10.07;9.20;;;;;;;13.03;100.00;99896.38;4940580;29;20210;-80
2022/10/21 02:38:03;;;;;;;9.17;8.47;;;;;;;13.06;100.00;99902.38;4941087;29;20226;-80
2022/10/21 02:40:34;;;;;;;10.40;8.80;;;;;;;13.16;100.00;99891.50;4940742;29;20677;-80
2022/10/21 02:43:06;;;;;;;9.77;8.90;;;;;;;13.20;100.00;99885.25;4940968;29;20221;-80
2022/10/21 02:45:33;;;;;;;10.07;9.10;;;;;;;13.22;100.00;99868.56;4940946;29;20236;-79
2022/10/21 02:48:00;;;;;;;11.23;8.67;;;;;;;13.28;100.00;99872.72;4940495;29;20591;-77
2022/10/21 02:50:28;;;;;;;10.17;9.27;;;;;;;13.29;100.00;99871.78;4940368;29;20221;-79
2022/10/21 02:52:54;;;;;;;10.30;9.50;;;;;;;13.36;100.00;99883.78;4940967;29;20214;-79
2022/10/21 02:55:21;;;;;;;9.90;9.00;;;;;;;13.38;100.00;99884.56;4940522;29;20578;-79
2022/10/21 02:57:47;;;;;;;9.23;8.43;;;;;;;13.37;100.00;99888.09;4940699;29;20201;-79
2022/10/21 03:00:15;;;;;;;10.07;9.30;;;;;;;13.40;100.00;99869.63;4940305;29;20214;-80
2022/10/21 03:02:41;;;;;;;10.13;9.33;;;;;;;13.44;100.00;99870.38;4940687;29;20211;-79
2022/10/21 03:05:09;;;;;;;10.00;9.20;;;;;;;13.46;100.00;99856.28;4940626;29;20211;-80
2022/10/21 03:07:37;;;;;;;10.93;9.50;;;;;;;13.51;100.00;99861.34;4940296;29;20215;-78
2022/10/21 03:10:04;;;;;;;9.90;9.13;;;;;;;13.54;100.00;99861.22;4940081;29;20210;-79
2022/10/21 03:12:30;;;;;;;10.37;9.37;;;;;;;13.60;100.00;99866.22;4940364;29;20230;-79
2022/10/21 03:14:57;;;;;;;10.67;9.77;;;;;;;13.61;100.00;99857.41;4940862;29;20212;-79
2022/10/21 03:17:23;;;;;;;12.80;10.20;;;;;;;13.61;100.00;99851.31;4940490;29;20261;-80
2022/10/21 03:19:50;;;;;;;10.73;9.80;;;;;;;13.60;100.00;99844.38;4939856;29;20216;-79
2022/10/21 03:22:16;;;;;;;13.13;9.37;;;;;;;13.67;100.00;99845.81;4940236;29;20214;-79
2022/10/21 03:24:44;;;;;;;11.17;10.00;;;;;;;13.71;100.00;99852.66;4940163;29;20218;-79
2022/10/21 03:27:11;;;;;;;10.43;9.43;;;;;;;13.74;100.00;99862.19;4940049;29;20232;-78
2022/10/21 03:29:37;;;;;;;11.20;9.33;;;;;;;13.72;100.00;99858.78;4940192;29;20226;-80
2022/10/21 03:32:04;;;;;;;10.93;9.77;;;;;;;13.78;100.00;99850.63;4943301;29;20239;-80
2022/10/21 03:34:31;;;;;;;9.00;8.27;;;;;;;13.81;100.00;99850.50;4944183;29;20205;-79
2022/10/21 03:36:57;;;;;;;9.50;8.70;;;;;;;13.82;100.00;99854.84;4944160;29;20240;-80
2022/10/21 03:39:23;;;;;;;9.13;8.40;;;;;;;13.83;99.83;99862.63;4944093;29;20612;-78
2022/10/21 03:41:51;;;;;;;9.57;8.73;;;;;;;13.82;99.64;99855.69;4943910;29;20211;-80
2022/10/21 03:44:18;;;;;;;9.50;8.63;;;;;;;13.85;99.15;99868.66;4943896;29;20229;-79
2022/10/21 03:46:44;;;;;;;9.10;8.40;;;;;;;13.89;99.34;99870.25;4943790;29;20238;-79
2022/10/21 03:49:11;;;;;;;8.70;8.00;;;;;;;13.80;98.88;99873.25;4943806;29;20210;-80
2022/10/21 03:51:38;;;;;;;9.07;8.40;;;;;;;13.84;98.51;99887.13;4943551;29;20226;-80
2022/10/21 03:54:04;;;;;;;8.23;7.63;;;;;;;13.92;98.72;99892.03;4944000;29;20211;-80
2022/10/21 03:56:31;;;;;;;8.50;7.63;;;;;;;13.96;98.27;99906.75;4943049;29;20258;-79
2022/10/21 03:58:58;;;;;;;8.40;7.53;;;;;;;13.96;98.27;99914.63;4943583;29;20213;-80
2022/10/21 04:01:25;;;;;;;7.23;6.63;;;;;;;13.96;98.15;99918.09;4942880;29;20207;-78
2022/10/21 04:03:52;;;;;;;8.03;7.23;;;;;;;13.93;98.63;99906.84;4943187;29;20696;-77
2022/10/21 04:06:18;;;;;;;7.30;6.63;;;;;;;13.89;98.72;99890.38;4943389;29;20246;-79
2022/10/21 04:08:45;;;;;;;10.23;7.40;;;;;;;13.94;98.90;99880.56;4944133;29;20224;-80
2022/10/21 04:11:11;;;;;;;8.00;7.23;;;;;;;13.95;99.03;99873.53;4943543;29;20879;-79
2022/10/21 04:13:38;;;;;;;7.00;6.40;;;;;;;13.88;99.44;99858.03;4943456;29;20207;-80
2022/10/21 04:16:10;;;;;;;7.47;6.77;;;;;;;13.93;99.19;99844.72;4943724;29;20235;-79
2022/10/21 04:18:36;;;;;;;10.60;7.30;;;;;;;13.94;99.65;99830.72;4943132;29;20217;-78
2022/10/21 04:21:03;;;;;;;7.47;6.80;;;;;;;13.92;100.00;99818.56;4943078;29;20207;-78
2022/10/21 04:23:29;;;;;;;7.67;6.80;;;;;;;13.92;100.00;99816.81;4942850;29;20212;-80
2022/10/21 04:25:56;;;;;;;6.70;6.20;;;;;;;13.90;100.00;99816.84;4943541;29;20247;-80
2022/10/21 04:28:22;;;;;;;8.13;7.30;;;;;;;13.84;100.00;99817.13;4942823;29;20219;-80
2022/10/21 04:30:49;;;;;;;8.47;7.67;;;;;;;13.80;100.00;99828.66;4942773;29;20215;-78
2022/10/21 04:33:18;;;;;;;7.30;6.70;;;;;;;13.86;100.00;99832.81;4942664;29;20206;-79
2022/10/21 04:35:44;;;;;;;8.10;6.70;;;;;;;13.80;100.00;99830.44;4942924;29;20610;-79
2022/10/21 04:38:11;;;;;;;9.93;6.93;;;;;;;13.82;100.00;99833.84;4942687;29;20217;-80
2022/10/21 04:40:37;;;;;;;6.90;6.33;;;;;;;13.78;100.00;99827.88;4942297;29;20395;-80
2022/10/21 04:43:04;;;;;;;7.57;6.87;;;;;;;13.72;100.00;99816.81;4942327;29;20217;-78
2022/10/21 04:45:31;;;;;;;10.63;6.63;;;;;;;13.76;100.00;99810.50;4942346;29;20231;-80
2022/10/21 04:47:57;;;;;;;6.97;6.37;;;;;;;13.83;100.00;99814.56;4942381;29;20207;-79
2022/10/21 04:50:25;;;;;;;8.10;6.33;;;;;;;13.84;100.00;99808.41;4942128;29;20243;-80
2022/10/21 04:52:51;;;;;;;7.17;6.40;;;;;;;13.82;100.00;99811.09;4942371;29;20231;-80
2022/10/21 04:55:18;;;;;;;7.67;7.07;;;;;;;13.80;100.00;99799.81;4943093;29;20219;-80
2022/10/21 04:57:44;;;;;;;7.23;6.63;;;;;;;13.80;100.00;99799.81;4942415;29;20215;-80
2022/10/21 05:00:12;;;;;;;6.20;5.70;;;;;;;13.85;100.00;99796.97;4941909;29;20278;-79
2022/10/21 05:02:39;;;;;;;7.33;6.67;;;;;;;13.84;100.00;99777.78;4942995;29;20572;-79
2022/10/21 05:05:06;;;;;;;7.37;6.80;;;;;;;13.76;100.00;99787.75;4942090;29;20213;-79
2022/10/21 05:07:34;;;;;;;7.33;6.70;;;;;;;13.74;100.00;99786.13;4941736;29;20219;-80
2022/10/21 05:10:00;;;;;;;7.20;6.50;;;;;;;13.78;100.00;99788.53;4942335;29;20213;-80
2022/10/21 05:12:27;;;;;;;5.97;5.53;;;;;;;13.83;100.00;99788.31;4941866;29;20554;-80
2022/10/21 05:14:53;;;;;;;8.77;6.73;;;;;;;13.96;100.00;99765.91;4941905;29;20221;-80
2022/10/21 05:17:20;;;;;;;7.80;7.20;;;;;;;14.01;100.00;99748.19;4941099;29;20632;-80
2022/10/21 05:19:46;;;;;;;7.93;7.27;;;;;;;14.03;100.00;99721.84;4940962;29;20219;-77
2022/10/21 05:22:13;;;;;;;17.70;8.97;;;;;;;14.04;100.00;99728.81;4941804;29;20211;-79
2022/10/21 05:24:41;;;;;;;8.50;7.00;;;;;;;14.08;100.00;99702.38;4942086;29;20212;-80
2022/10/21 05:27:07;;;;;;;7.93;7.13;;;;;;;14.05;100.00;99713.00;4942093;29;20255;-79
2022/10/21 05:29:34;;;;;;;8.27;6.47;;;;;;;14.03;100.00;99706.97;4941904;29;20222;-79
2022/10/21 05:32:00;;;;;;;6.37;5.80;;;;;;;14.02;100.00;99710.50;4940769;29;20609;-80
2022/10/21 05:34:27;;;;;;;6.87;6.27;;;;;;;14.00;100.00;99722.84;4941284;29;20221;-79
2022/10/21 05:36:53;;;;;;;7.27;6.67;;;;;;;14.01;100.00;99726.31;4941576;29;20235;-78
2022/10/21 05:39:20;;;;;;;17.53;7.73;;;;;;;14.02;100.00;99712.28;4941438;29;20220;-79
2022/10/21 05:41:47;;;;;;;15.13;9.20;;;;;;;14.03;100.00;99712.22;4941836;29;20219;-79
2022/10/21 05:44:14;;;;;;;11.57;9.47;;;;;;;13.99;100.00;99712.41;4941403;29;20698;-79
2022/10/21 05:46:40;;;;;;;11.60;8.77;;;;;;;13.94;100.00;99719.66;4941118;29;20234;-79
2022/10/21 05:49:07;;;;;;;17.63;9.00;;;;;;;13.86;100.00;99715.59;4941050;29;20205;-79
2022/10/21 05:51:34;;;;;;;12.27;8.77;;;;;;;13.78;100.00;99715.09;4940939;29;20232;-79
2022/10/21 05:54:02;;;;;;;9.00;8.20;;;;;;;13.64;100.00;99715.69;4939934;29;20226;-79
2022/10/21 05:56:29;;;;;;;8.47;7.73;;;;;;;13.68;100.00;99719.88;4941382;29;20327;-79
2022/10/21 05:58:57;;;;;;;9.07;8.17;;;;;;;13.62;100.00;99730.63;4940469;29;20225;-78
2022/10/21 06:01:23;;;;;;;8.13;7.43;;;;;;;13.61;100.00;99723.66;4940139;29;20205;-79
2022/10/21 06:03:50;;;;;;;9.20;8.27;;;;;;;13.62;100.00;99741.13;4941103;29;20219;-80
2022/10/21 06:06:17;;;;;;;9.00;8.20;;;;;;;13.64;100.00;99736.66;4941028;29;20239;-79
2022/10/21 06:08:43;;;;;;;7.73;7.10;;;;;;;13.65;100.00;99740.13;4941067;29;20222;-78
2022/10/21 06:11:12;;;;;;;8.43;7.73;;;;;;;13.66;100.00;99733.97;4943180;29;20204;-79
2022/10/21 06:13:39;;;;;;;9.17;8.27;;;;;;;13.68;100.00;99740.84;4940508;29;20707;-79
2022/10/21 06:16:08;;;;;;;8.50;7.80;;;;;;;13.62;100.00;99724.53;4940265;29;20235;-80
2022/10/21 06:18:35;;;;;;;9.07;8.27;;;;;;;13.67;100.00;99714.69;4940595;29;20584;-79
2022/10/21 06:21:02;;;;;;;9.80;7.87;;;;;;;13.67;100.00;99714.69;4945081;29;20213;-79
2022/10/21 06:23:28;;;;;;;8.17;7.57;;;;;;;13.63;100.00;99723.59;4959983;29;20207;-78
2022/10/21 06:25:56;;;;;;;8.50;7.70;;;;;;;13.69;100.00;99723.34;4959854;29;20226;-78
2022/10/21 06:28:23;;;;;;;10.60;7.43;;;;;;;13.72;100.00;99731.09;4959512;29;20234;-78
2022/10/21 06:30:50;;;;;;;7.97;7.27;;;;;;;13.80;100.00;99736.84;4956043;29;20207;-79
2022/10/21 06:33:18;;;;;;;8.80;7.93;;;;;;;13.84;100.00;99733.19;4939855;29;20577;-80
2022/10/21 06:35:45;;;;;;;8.50;7.87;;;;;;;13.80;100.00;99733.38;4939878;29;20315;-80
2022/10/21 06:38:11;;;;;;;7.57;7.07;;;;;;;13.83;100.00;99751.59;4939488;29;20740;-79
2022/10/21 06:40:38;;;;;;;9.10;8.10;;;;;;;13.85;100.00;99768.13;4939838;29;20217;-79
2022/10/21 06:43:04;;;;;;;8.23;7.53;;;;;;;13.87;100.00;99775.03;4956437;29;20541;-79
2022/10/21 06:45:31;;;;;;;8.30;7.60;;;;;;;13.84;100.00;99772.53;4957989;29;20241;-82
2022/10/21 06:47:57;;;;;;;7.17;6.67;;;;;;;13.88;100.00;99779.34;4942457;29;20707;-82
2022/10/21 06:50:27;;;;;;;7.40;6.87;;;;;;;13.85;100.00;99783.88;4944999;29;20218;-81
2022/10/21 06:52:53;;;;;;;8.47;7.43;;;;;;;13.84;100.00;99784.78;4955833;28;20251;-81
2022/10/21 06:55:20;;;;;;;8.73;7.93;;;;;;;13.86;100.00;99785.59;4955610;29;20238;-82
2022/10/21 06:57:46;;;;;;;7.33;6.83;;;;;;;13.87;100.00;99782.91;4955558;29;20225;-82
2022/10/21 07:00:14;;;;;;;7.70;7.10;;;;;;;13.88;100.00;99795.09;4955579;29;20634;-83
2022/10/21 07:02:41;;;;;;;8.00;7.27;;;;;;;13.90;100.00;99788.00;4956425;29;20229;-83
2022/10/21 07:05:08;;;;;;;8.93;7.23;;;;;;;13.94;100.00;99799.22;4956001;29;20205;-82
2022/10/21 07:07:36;;;;;;;8.93;8.03;;;;;;;13.97;100.00;99799.06;4956154;29;20218;-83
2022/10/21 07:10:03;;;;;;;7.63;6.80;;;;;;;13.99;100.00;99801.63;4955875;29;20216;-81
2022/10/21 07:12:31;;;;;;;8.20;6.40;;;;;;;13.94;100.00;99801.84;4956517;29;20231;-82
2022/10/21 07:14:57;;;;;;;7.73;7.00;;;;;;;13.95;100.00;99802.69;4956537;29;20216;-83
2022/10/21 07:17:24;;;;;;;6.77;6.23;;;;;;;14.06;100.00;99814.44;4956831;29;20609;-82
2022/10/21 07:19:50;;;;;;;6.63;6.03;;;;;;;14.13;100.00;99804.50;4956433;28;20234;-82
2022/10/21 07:22:17;;;;;;;8.47;6.33;;;;;;;14.14;100.00;99806.22;4956563;29;20218;-82
2022/10/21 07:24:45;;;;;;;7.00;6.40;;;;;;;14.16;100.00;99812.25;4957015;28;20211;-82
2022/10/21 07:27:12;;;;;;;7.33;6.63;;;;;;;14.22;100.00;99819.00;4957482;29;20603;-80
2022/10/21 07:29:38;;;;;;;7.20;6.50;;;;;;;14.22;100.00;99816.38;4957504;29;20214;-82
2022/10/21 07:32:05;;;;;;;6.33;5.87;;;;;;;14.22;100.00;99814.59;4957873;29;20242;-82
2022/10/21 07:34:31;;;;;;;7.37;6.47;;;;;;;14.25;100.00;99810.97;4957815;29;20211;-81
2022/10/21 07:36:58;;;;;;;7.50;6.63;;;;;;;14.28;100.00;99795.13;4957781;29;20239;-82
2022/10/21 07:39:26;;;;;;;7.27;6.57;;;;;;;14.32;100.00;99796.69;4957748;29;20214;-81
2022/10/21 07:41:56;;;;;;;6.57;5.97;;;;;;;14.41;100.00;99804.16;4957662;29;20209;-82
2022/10/21 07:44:24;;;;;;;7.57;6.77;;;;;;;14.46;100.00;99801.31;4958725;29;20212;-82
2022/10/21 07:46:52;;;;;;;7.13;6.43;;;;;;;14.58;100.00;99807.81;4957828;29;20721;-81
2022/10/21 07:49:20;;;;;;;6.50;5.93;;;;;;;14.62;100.00;99804.97;4957461;29;20688;-82
2022/10/21 07:51:49;;;;;;;7.17;6.47;;;;;;;14.67;100.00;99812.66;4957274;29;20231;-82
2022/10/21 07:54:16;;;;;;;7.23;6.60;;;;;;;14.79;100.00;99795.47;4958651;29;20213;-82
2022/10/21 07:56:45;;;;;;;6.93;6.27;;;;;;;14.92;100.00;99809.72;4957279;29;20237;-81
2022/10/21 07:59:14;;;;;;;7.47;6.30;;;;;;;14.89;100.00;99815.13;4958117;29;20212;-82
2022/10/21 08:01:44;;;;;;;6.80;5.73;;;;;;;14.96;100.00;99821.78;4957611;29;20229;-82
2022/10/21 08:04:11;;;;;;;6.20;5.70;;;;;;;14.97;99.98;99846.31;4957676;28;20206;-82
2022/10/21 08:06:37;;;;;;;6.30;5.80;;;;;;;15.13;99.31;99844.66;4957456;28;20331;-82
2022/10/21 08:09:04;;;;;;;10.40;5.60;;;;;;;15.18;99.28;99847.06;4958317;29;20216;-82
2022/10/21 08:11:33;;;;;;;7.30;6.60;;;;;;;15.23;99.73;99850.34;4957749;29;20215;-82
2022/10/21 08:14:00;;;;;;;6.23;5.73;;;;;;;15.26;98.58;99860.69;4958623;29;20240;-82
2022/10/21 08:16:29;;;;;;;7.00;5.80;;;;;;;15.33;97.72;99872.63;4957777;28;20236;-82
2022/10/21 08:18:58;;;;;;;7.03;5.70;;;;;;;15.32;98.41;99863.06;4961078;29;20220;-82
2022/10/21 08:21:25;;;;;;;6.93;6.20;;;;;;;15.36;97.92;99875.13;4961510;28;20208;-81
2022/10/21 08:23:51;;;;;;;15.80;6.03;;;;;;;15.46;98.16;99873.75;4962405;29;20223;-82
2022/10/21 08:26:18;;;;;;;6.97;6.40;;;;;;;15.47;97.40;99867.56;4961537;29;20608;-82
2022/10/21 08:28:45;;;;;;;6.43;5.67;;;;;;;15.44;96.54;99886.13;4961745;28;20220;-82
2022/10/21 08:31:14;;;;;;;6.57;5.23;;;;;;;15.48;96.45;99892.09;4962331;29;20205;-81
2022/10/21 08:33:42;;;;;;;5.67;5.23;;;;;;;15.52;96.31;99883.13;4962780;29;20240;-81
2022/10/21 08:36:12;;;;;;;6.03;5.53;;;;;;;15.61;97.16;99864.25;4962687;29;20235;-81
2022/10/21 08:38:39;;;;;;;7.67;5.40;;;;;;;15.69;97.31;99856.84;4962638;29;20667;-81
2022/10/21 08:41:18;;;;;;;6.03;5.53;;;;;;;15.77;96.34;99877.53;4964368;29;20216;-81
2022/10/21 08:43:45;;;;;;;5.67;5.10;;;;;;;15.75;95.27;99892.56;4962022;29;20205;-81
2022/10/21 08:46:16;;;;;;;5.90;5.30;;;;;;;15.78;95.35;99889.78;4961004;28;20233;-82
2022/10/21 08:48:51;;;;;;;7.47;5.80;;;;;;;15.90;94.98;99896.22;4958617;28;20240;-82
2022/10/21 08:51:33;;;;;;;5.93;5.37;;;;;;;15.81;94.03;99930.88;4952386;29;20212;-80
2022/10/21 08:54:04;;;;;;;7.23;5.87;;;;;;;15.78;93.80;99920.53;4960117;28;20242;-83
2022/10/21 08:56:31;;;;;;;5.77;5.17;;;;;;;15.78;93.97;99931.03;4959635;29;20236;-82
2022/10/21 08:58:58;;;;;;;6.10;5.47;;;;;;;15.78;93.00;99945.06;4960727;29;20220;-82
2022/10/21 09:01:32;;;;;;;6.03;5.40;;;;;;;15.85;93.20;99951.69;4961340;29;20205;-81
2022/10/21 09:04:10;;;;;;;5.50;5.00;;;;;;;15.88;93.40;99946.31;4961781;29;20230;-82
2022/10/21 09:06:47;;;;;;;4.53;4.13;;;;;;;15.97;93.66;99942.34;4960956;29;20237;-82
2022/10/21 09:09:20;;;;;;;5.43;4.90;;;;;;;16.10;93.33;99947.03;4962100;29;20212;-82
2022/10/21 09:11:58;;;;;;;8.33;5.17;;;;;;;16.18;92.56;99947.50;4961526;29;20220;-82
2022/10/21 09:14:42;;;;;;;7.07;4.47;;;;;;;16.24;92.51;99947.19;4961827;29;20232;-82
2022/10/21 09:17:20;;;;;;;5.40;4.93;;;;;;;16.25;91.74;99952.38;4961842;29;20317;-82
2022/10/21 09:19:58;;;;;;;6.07;5.47;;;;;;;16.22;91.34;99963.06;4961762;29;20212;-82
2022/10/21 09:22:44;;;;;;;6.43;4.83;;;;;;;16.23;91.37;99970.03;4961432;29;20216;-82
2022/10/21 09:25:20;;;;;;;4.67;4.20;;;;;;;16.27;91.43;99962.81;4961145;29;20215;-81
2022/10/21 09:27:47;;;;;;;5.60;5.10;;;;;;;16.30;91.67;99954.78;4961230;28;20205;-81
2022/10/21 09:30:16;;;;;;;4.47;4.07;;;;;;;16.25;91.46;99956.78;4961067;29;20220;-81
2022/10/21 09:32:48;;;;;;;7.97;4.73;;;;;;;16.21;92.15;99956.09;4960892;28;20256;-81
2022/10/21 09:35:22;;;;;;;5.00;4.60;;;;;;;16.28;91.26;99943.47;4961218;29;20216;-82
2022/10/21 09:37:53;;;;;;;5.33;4.27;;;;;;;16.35;90.81;99955.41;4961068;29;20224;-83
2022/10/21 09:40:22;;;;;;;5.17;4.77;;;;;;;16.43;90.58;99960.25;4960694;29;20691;-82
2022/10/21 09:42:54;;;;;;;4.63;4.13;;;;;;;16.37;90.23;99963.22;4960485;29;20675;-81
2022/10/21 09:45:25;;;;;;;5.97;4.50;;;;;;;16.43;90.51;99958.50;4946205;28;20257;-79
2022/10/21 09:47:56;;;;;;;5.30;4.40;;;;;;;16.41;91.01;99957.72;4949001;29;20204;-82
2022/10/21 09:50:25;;;;;;;5.07;4.23;;;;;;;16.46;90.29;99968.03;4949793;29;20220;-81
2022/10/21 09:53:00;;;;;;;5.97;3.80;;;;;;;16.57;90.12;99955.16;4955983;29;20237;-82
2022/10/21 09:55:28;;;;;;;5.03;4.13;;;;;;;16.62;89.76;99973.34;4606691;29;10000582;-82
2022/10/21 09:57:58;;;;;;;6.83;4.47;;;;;;;16.71;90.76;99950.94;4946939;29;20212;-82
2022/10/21 10:00:42;;;;;;;6.87;4.43;;;;;;;16.69;88.34;99998.47;4948877;29;20575;-80
2022/10/21 10:03:09;;;;;;;4.10;3.80;;;;;;;16.75;88.58;100015.72;4946448;29;20670;-82
2022/10/21 10:05:42;;;;;;;4.73;3.70;;;;;;;16.82;88.57;100022.44;4942424;29;20231;-81
2022/10/21 10:08:37;;;;;;;7.07;4.97;;;;;;;16.79;88.40;100041.03;4944908;29;20212;-81
2022/10/21 10:11:11;;;;;;;5.57;4.03;;;;;;;16.80;89.02;100027.75;4915515;29;20197;-80
2022/10/21 10:13:40;;;;;;;4.77;4.37;;;;;;;16.82;88.73;100022.44;4945690;29;20224;-81
2022/10/21 10:16:14;;;;;;;5.80;4.13;;;;;;;16.86;88.69;100016.91;4943896;29;20230;-80
2022/10/21 10:18:41;;;;;;;5.03;4.47;;;;;;;16.81;88.93;100016.31;4944142;28;20193;-82
2022/10/21 10:21:12;;;;;;;4.97;4.47;;;;;;;16.74;89.40;100008.78;4944761;29;20208;-81
2022/10/21 10:23:45;;;;;;;5.40;4.60;;;;;;;16.78;89.93;99970.78;4945673;29;20220;-81
2022/10/21 10:26:18;;;;;;;4.80;4.40;;;;;;;16.47;89.06;99999.56;4943721;29;20639;-80
2022/10/21 10:28:50;;;;;;;4.83;4.23;;;;;;;16.53;88.38;100016.84;4944183;29;20225;-81
2022/10/21 10:31:24;;;;;;;5.50;5.00;;;;;;;16.56;88.52;100013.19;4942995;29;20213;-82
2022/10/21 10:33:55;;;;;;;5.17;4.77;;;;;;;16.44;88.37;100004.13;4942540;29;20228;-82
2022/10/21 10:36:28;;;;;;;5.90;4.90;;;;;;;16.52;88.69;100012.50;4941834;29;20727;-80
2022/10/21 10:38:57;;;;;;;5.13;4.53;;;;;;;16.49;89.06;99994.22;4937356;29;20212;-80
2022/10/21 10:41:31;;;;;;;5.70;5.10;;;;;;;16.52;89.21;99983.50;4943119;28;20583;-81
2022/10/21 10:43:58;;;;;;;4.97;4.53;;;;;;;16.47;89.59;99972.34;4943641;29;20205;-81
2022/10/21 10:46:27;;;;;;;7.53;5.10;;;;;;;16.42;89.39;99972.59;4942077;29;20230;-81
2022/10/21 10:48:56;;;;;;;6.70;5.10;;;;;;;16.34;89.02;99973.91;4942874;29;20220;-80
2022/10/21 10:51:28;;;;;;;5.93;5.30;;;;;;;16.33;89.23;99975.69;4942958;29;20587;-81
2022/10/21 10:54:03;;;;;;;5.60;5.10;;;;;;;16.34;89.49;99989.72;4942718;29;20236;-80
2022/10/21 10:56:35;;;;;;;7.27;4.87;;;;;;;16.23;88.88;99983.22;4942078;29;20220;-81
2022/10/21 10:59:11;;;;;;;6.30;4.83;;;;;;;16.22;89.75;99978.00;4940942;29;20234;-80
2022/10/21 11:01:48;;;;;;;6.30;5.80;;;;;;;16.21;90.07;99961.38;4941180;29;20215;-81
2022/10/21 11:04:22;;;;;;;6.10;5.50;;;;;;;16.27;89.92;99961.06;4943111;29;20228;-83
2022/10/21 11:06:56;;;;;;;6.10;5.50;;;;;;;16.26;90.25;99969.88;4942071;29;20768;-81
2022/10/21 11:09:24;;;;;;;7.90;5.33;;;;;;;16.15;89.51;99971.34;4941229;29;20232;-79
2022/10/21 11:11:54;;;;;;;6.47;5.87;;;;;;;16.25;90.09;99955.03;4942573;28;20211;-81
2022/10/21 11:14:21;;;;;;;6.30;5.70;;;;;;;16.30;89.72;99967.09;4941348;29;20221;-81
2022/10/21 11:17:03;;;;;;;7.77;6.10;;;;;;;16.27;89.78;99973.34;4941817;29;20743;-79
2022/10/21 11:19:42;;;;;;;7.57;5.23;;;;;;;16.25;89.02;99984.00;4942137;29;20607;-79
2022/10/21 11:22:15;;;;;;;6.33;5.00;;;;;;;16.22;89.79;99970.97;4941514;29;20215;-80
2022/10/21 11:25:03;;;;;;;6.13;5.53;;;;;;;16.29;89.23;99966.22;4941514;29;20627;-80
2022/10/21 11:27:54;;;;;;;7.00;5.47;;;;;;;16.32;89.44;99968.72;4942139;29;20660;-80
2022/10/21 11:30:23;;;;;;;6.03;5.23;;;;;;;16.37;89.67;99957.94;4942752;29;20205;-80
2022/10/21 11:33:01;;;;;;;6.27;4.90;;;;;;;16.31;89.73;99955.63;4941586;29;20208;-81
2022/10/21 11:35:37;;;;;;;6.77;4.87;;;;;;;16.29;90.10;99945.16;4941736;29;20230;-80